sensor_id;sensor_type;location;lat;lon;timestamp;temperature;humidity
40534;DHT22;26233;51.894;10.192;2023-08-21T00:00:15;24.50;47.60
40534;DHT22;26233;51.894;10.192;2023-08-21T00:02:42;24.50;47.70
40534;DHT22;26233;51.894;10.192;2023-08-21T00:05:10;24.50;47.70
40534;DHT22;26233;51.894;10.192;2023-08-21T00:07:37;24.40;47.70
40534;DHT22;26233;51.894;10.192;2023-08-21T00:10:05;24.40;47.70
40534;DHT22;26233;51.894;10.192;2023-08-21T00:12:33;24.40;47.90
40534;DHT22;26233;51.894;10.192;2023-08-21T00:15:00;24.40;47.90
40534;DHT22;26233;51.894;10.192;2023-08-21T00:17:29;24.40;47.90
40534;DHT22;26233;51.894;10.192;2023-08-21T00:19:56;24.40;47.90
40534;DHT22;26233;51.894;10.192;2023-08-21T00:22:23;24.40;47.90
40534;DHT22;26233;51.894;10.192;2023-08-21T00:24:51;24.30;47.70
40534;DHT22;26233;51.894;10.192;2023-08-21T00:27:18;24.30;47.70
40534;DHT22;26233;51.894;10.192;2023-08-21T00:29:45;24.30;47.70
40534;DHT22;26233;51.894;10.192;2023-08-21T00:32:12;24.20;47.60
40534;DHT22;26233;51.894;10.192;2023-08-21T00:34:40;24.20;47.60
40534;DHT22;26233;51.894;10.192;2023-08-21T00:37:07;24.20;47.70
40534;DHT22;26233;51.894;10.192;2023-08-21T00:39:35;24.20;47.70
40534;DHT22;26233;51.894;10.192;2023-08-21T00:42:02;24.20;47.90
40534;DHT22;26233;51.894;10.192;2023-08-21T00:44:29;24.10;47.70
40534;DHT22;26233;51.894;10.192;2023-08-21T00:46:56;24.10;47.70
40534;DHT22;26233;51.894;10.192;2023-08-21T00:49:23;24.00;47.50
40534;DHT22;26233;51.894;10.192;2023-08-21T00:51:53;24.00;47.60
40534;DHT22;26233;51.894;10.192;2023-08-21T00:54:20;23.90;48.10
40534;DHT22;26233;51.894;10.192;2023-08-21T00:56:47;23.90;47.60
40534;DHT22;26233;51.894;10.192;2023-08-21T00:59:18;23.80;47.50
40534;DHT22;26233;51.894;10.192;2023-08-21T01:01:45;23.80;47.50
40534;DHT22;26233;51.894;10.192;2023-08-21T01:04:13;23.80;47.40
40534;DHT22;26233;51.894;10.192;2023-08-21T01:06:40;23.70;47.90
40534;DHT22;26233;51.894;10.192;2023-08-21T01:09:27;23.70;47.30
40534;DHT22;26233;51.894;10.192;2023-08-21T01:12:04;23.70;47.30
40534;DHT22;26233;51.894;10.192;2023-08-21T01:14:42;23.70;47.20
40534;DHT22;26233;51.894;10.192;2023-08-21T01:17:13;23.70;47.30
40534;DHT22;26233;51.894;10.192;2023-08-21T01:19:43;23.70;47.30
40534;DHT22;26233;51.894;10.192;2023-08-21T01:22:11;23.70;47.30
40534;DHT22;26233;51.894;10.192;2023-08-21T01:24:40;23.70;47.30
40534;DHT22;26233;51.894;10.192;2023-08-21T01:27:07;23.70;47.90
40534;DHT22;26233;51.894;10.192;2023-08-21T01:29:35;23.70;47.20
40534;DHT22;26233;51.894;10.192;2023-08-21T01:32:06;23.80;47.20
40534;DHT22;26233;51.894;10.192;2023-08-21T01:34:37;23.80;47.00
40534;DHT22;26233;51.894;10.192;2023-08-21T01:37:06;23.80;47.60
40534;DHT22;26233;51.894;10.192;2023-08-21T01:39:34;23.80;46.90
40534;DHT22;26233;51.894;10.192;2023-08-21T01:42:02;23.80;46.90
40534;DHT22;26233;51.894;10.192;2023-08-21T01:44:30;23.80;47.00
40534;DHT22;26233;51.894;10.192;2023-08-21T01:46:57;23.80;47.00
40534;DHT22;26233;51.894;10.192;2023-08-21T01:49:24;23.70;47.00
40534;DHT22;26233;51.894;10.192;2023-08-21T01:51:51;23.70;47.00
40534;DHT22;26233;51.894;10.192;2023-08-21T01:54:18;23.70;47.10
40534;DHT22;26233;51.894;10.192;2023-08-21T01:56:45;23.60;47.10
40534;DHT22;26233;51.894;10.192;2023-08-21T01:59:15;23.60;47.10
40534;DHT22;26233;51.894;10.192;2023-08-21T02:01:43;23.60;47.70
40534;DHT22;26233;51.894;10.192;2023-08-21T02:04:10;23.60;47.10
40534;DHT22;26233;51.894;10.192;2023-08-21T02:06:37;23.60;47.20
40534;DHT22;26233;51.894;10.192;2023-08-21T02:09:04;23.60;47.20
40534;DHT22;26233;51.894;10.192;2023-08-21T02:11:31;23.60;47.20
40534;DHT22;26233;51.894;10.192;2023-08-21T02:13:58;23.60;47.70
40534;DHT22;26233;51.894;10.192;2023-08-21T02:16:27;23.60;47.10
40534;DHT22;26233;51.894;10.192;2023-08-21T02:18:54;23.60;47.10
40534;DHT22;26233;51.894;10.192;2023-08-21T02:21:22;23.60;47.10
40534;DHT22;26233;51.894;10.192;2023-08-21T02:23:49;23.60;47.10
40534;DHT22;26233;51.894;10.192;2023-08-21T02:26:16;23.60;47.80
40534;DHT22;26233;51.894;10.192;2023-08-21T02:28:45;23.60;47.10
40534;DHT22;26233;51.894;10.192;2023-08-21T02:31:12;23.60;47.80
40534;DHT22;26233;51.894;10.192;2023-08-21T02:33:41;23.60;47.20
40534;DHT22;26233;51.894;10.192;2023-08-21T02:36:08;23.60;47.30
40534;DHT22;26233;51.894;10.192;2023-08-21T02:38:35;23.50;47.30
40534;DHT22;26233;51.894;10.192;2023-08-21T02:41:03;23.50;47.40
40534;DHT22;26233;51.894;10.192;2023-08-21T02:43:30;23.50;47.40
40534;DHT22;26233;51.894;10.192;2023-08-21T02:45:57;23.50;47.40
40534;DHT22;26233;51.894;10.192;2023-08-21T02:48:24;23.50;47.50
40534;DHT22;26233;51.894;10.192;2023-08-21T02:50:52;23.40;47.40
40534;DHT22;26233;51.894;10.192;2023-08-21T02:53:19;23.40;47.40
40534;DHT22;26233;51.894;10.192;2023-08-21T02:55:47;23.40;47.40
40534;DHT22;26233;51.894;10.192;2023-08-21T02:58:14;23.40;47.50
40534;DHT22;26233;51.894;10.192;2023-08-21T03:00:41;23.30;47.50
40534;DHT22;26233;51.894;10.192;2023-08-21T03:03:08;23.30;47.60
40534;DHT22;26233;51.894;10.192;2023-08-21T03:05:36;23.20;47.50
40534;DHT22;26233;51.894;10.192;2023-08-21T03:08:05;23.20;47.60
40534;DHT22;26233;51.894;10.192;2023-08-21T03:10:32;23.20;47.60
40534;DHT22;26233;51.894;10.192;2023-08-21T03:13:00;23.10;47.50
40534;DHT22;26233;51.894;10.192;2023-08-21T03:15:27;23.10;47.50
40534;DHT22;26233;51.894;10.192;2023-08-21T03:17:54;23.00;47.50
40534;DHT22;26233;51.894;10.192;2023-08-21T03:20:21;23.00;47.60
40534;DHT22;26233;51.894;10.192;2023-08-21T03:22:49;23.00;47.60
40534;DHT22;26233;51.894;10.192;2023-08-21T03:25:18;22.90;47.70
40534;DHT22;26233;51.894;10.192;2023-08-21T03:27:45;22.90;47.70
40534;DHT22;26233;51.894;10.192;2023-08-21T03:30:15;22.90;47.70
40534;DHT22;26233;51.894;10.192;2023-08-21T03:32:42;22.80;47.60
40534;DHT22;26233;51.894;10.192;2023-08-21T03:35:10;22.80;47.60
40534;DHT22;26233;51.894;10.192;2023-08-21T03:37:37;22.80;47.60
40534;DHT22;26233;51.894;10.192;2023-08-21T03:40:05;22.70;47.50
40534;DHT22;26233;51.894;10.192;2023-08-21T03:42:34;22.70;47.60
40534;DHT22;26233;51.894;10.192;2023-08-21T03:45:02;22.60;47.50
40534;DHT22;26233;51.894;10.192;2023-08-21T03:47:30;22.50;47.50
40534;DHT22;26233;51.894;10.192;2023-08-21T03:49:57;22.50;47.70
40534;DHT22;26233;51.894;10.192;2023-08-21T03:52:24;22.40;47.60
40534;DHT22;26233;51.894;10.192;2023-08-21T03:54:51;22.30;47.70
40534;DHT22;26233;51.894;10.192;2023-08-21T03:57:19;22.30;47.80
40534;DHT22;26233;51.894;10.192;2023-08-21T03:59:47;22.20;47.80
40534;DHT22;26233;51.894;10.192;2023-08-21T04:02:14;22.10;47.80
40534;DHT22;26233;51.894;10.192;2023-08-21T04:04:41;22.10;47.90
40534;DHT22;26233;51.894;10.192;2023-08-21T04:07:08;22.10;48.00
40534;DHT22;26233;51.894;10.192;2023-08-21T04:09:35;22.00;48.00
40534;DHT22;26233;51.894;10.192;2023-08-21T04:12:03;22.00;48.10
40534;DHT22;26233;51.894;10.192;2023-08-21T04:14:30;22.00;48.20
40534;DHT22;26233;51.894;10.192;2023-08-21T04:16:58;22.00;48.20
40534;DHT22;26233;51.894;10.192;2023-08-21T04:19:25;21.90;48.30
40534;DHT22;26233;51.894;10.192;2023-08-21T04:21:55;21.90;48.30
40534;DHT22;26233;51.894;10.192;2023-08-21T04:24:22;21.90;48.40
40534;DHT22;26233;51.894;10.192;2023-08-21T04:26:49;21.90;48.40
40534;DHT22;26233;51.894;10.192;2023-08-21T04:29:17;21.90;48.30
40534;DHT22;26233;51.894;10.192;2023-08-21T04:31:44;21.80;48.30
40534;DHT22;26233;51.894;10.192;2023-08-21T04:34:12;21.80;48.40
40534;DHT22;26233;51.894;10.192;2023-08-21T04:36:39;21.80;48.50
40534;DHT22;26233;51.894;10.192;2023-08-21T04:39:06;21.70;48.50
40534;DHT22;26233;51.894;10.192;2023-08-21T04:41:34;21.70;48.50
40534;DHT22;26233;51.894;10.192;2023-08-21T04:44:01;21.70;48.60
40534;DHT22;26233;51.894;10.192;2023-08-21T04:46:29;21.60;48.60
40534;DHT22;26233;51.894;10.192;2023-08-21T04:48:56;21.60;48.60
40534;DHT22;26233;51.894;10.192;2023-08-21T04:51:25;21.60;48.70
40534;DHT22;26233;51.894;10.192;2023-08-21T04:53:52;21.60;48.70
40534;DHT22;26233;51.894;10.192;2023-08-21T04:56:19;21.60;48.80
40534;DHT22;26233;51.894;10.192;2023-08-21T04:58:46;21.60;48.80
40534;DHT22;26233;51.894;10.192;2023-08-21T05:01:13;21.60;48.90
40534;DHT22;26233;51.894;10.192;2023-08-21T05:03:40;21.60;48.90
40534;DHT22;26233;51.894;10.192;2023-08-21T05:06:08;21.60;49.00
40534;DHT22;26233;51.894;10.192;2023-08-21T05:08:36;21.60;49.00
40534;DHT22;26233;51.894;10.192;2023-08-21T05:11:03;21.60;49.10
40534;DHT22;26233;51.894;10.192;2023-08-21T05:13:30;21.50;49.00
40534;DHT22;26233;51.894;10.192;2023-08-21T05:15:58;21.50;49.00
40534;DHT22;26233;51.894;10.192;2023-08-21T05:18:25;21.50;49.10
40534;DHT22;26233;51.894;10.192;2023-08-21T05:20:55;21.50;49.20
40534;DHT22;26233;51.894;10.192;2023-08-21T05:23:22;21.50;49.20
40534;DHT22;26233;51.894;10.192;2023-08-21T05:25:51;21.40;49.20
40534;DHT22;26233;51.894;10.192;2023-08-21T05:28:18;21.50;49.50
40534;DHT22;26233;51.894;10.192;2023-08-21T05:30:46;21.50;49.70
40534;DHT22;26233;51.894;10.192;2023-08-21T05:33:14;21.50;49.70
40534;DHT22;26233;51.894;10.192;2023-08-21T05:35:41;21.50;49.80
40534;DHT22;26233;51.894;10.192;2023-08-21T05:38:08;21.60;50.00
40534;DHT22;26233;51.894;10.192;2023-08-21T05:40:36;21.60;50.10
40534;DHT22;26233;51.894;10.192;2023-08-21T05:43:04;21.70;50.10
40534;DHT22;26233;51.894;10.192;2023-08-21T05:45:31;21.80;50.20
40534;DHT22;26233;51.894;10.192;2023-08-21T05:47:58;21.80;50.20
40534;DHT22;26233;51.894;10.192;2023-08-21T05:50:25;21.90;50.30
40534;DHT22;26233;51.894;10.192;2023-08-21T05:52:53;21.90;50.30
40534;DHT22;26233;51.894;10.192;2023-08-21T05:55:20;21.90;50.20
40534;DHT22;26233;51.894;10.192;2023-08-21T05:57:47;22.00;50.20
40534;DHT22;26233;51.894;10.192;2023-08-21T06:00:17;22.00;50.30
40534;DHT22;26233;51.894;10.192;2023-08-21T06:02:44;22.00;50.30
40534;DHT22;26233;51.894;10.192;2023-08-21T06:05:11;22.10;50.50
40534;DHT22;26233;51.894;10.192;2023-08-21T06:07:39;22.10;50.30
40534;DHT22;26233;51.894;10.192;2023-08-21T06:10:07;22.20;50.40
40534;DHT22;26233;51.894;10.192;2023-08-21T06:12:37;22.20;50.50
40534;DHT22;26233;51.894;10.192;2023-08-21T06:15:05;22.30;51.20
40534;DHT22;26233;51.894;10.192;2023-08-21T06:17:35;22.40;50.60
40534;DHT22;26233;51.894;10.192;2023-08-21T06:20:03;22.40;50.60
40534;DHT22;26233;51.894;10.192;2023-08-21T06:22:34;22.50;50.70
40534;DHT22;26233;51.894;10.192;2023-08-21T06:25:02;22.60;50.80
40534;DHT22;26233;51.894;10.192;2023-08-21T06:27:29;22.70;51.00
40534;DHT22;26233;51.894;10.192;2023-08-21T06:29:57;22.90;51.10
40534;DHT22;26233;51.894;10.192;2023-08-21T06:32:24;23.00;51.00
40534;DHT22;26233;51.894;10.192;2023-08-21T06:34:52;23.10;50.90
40534;DHT22;26233;51.894;10.192;2023-08-21T06:37:20;23.30;50.90
40534;DHT22;26233;51.894;10.192;2023-08-21T06:39:47;23.40;51.00
40534;DHT22;26233;51.894;10.192;2023-08-21T06:42:14;23.50;51.00
40534;DHT22;26233;51.894;10.192;2023-08-21T06:44:41;23.70;51.00
40534;DHT22;26233;51.894;10.192;2023-08-21T06:47:08;23.80;51.00
40534;DHT22;26233;51.894;10.192;2023-08-21T06:49:35;23.90;51.10
40534;DHT22;26233;51.894;10.192;2023-08-21T06:52:04;24.20;51.50
40534;DHT22;26233;51.894;10.192;2023-08-21T06:54:31;24.40;52.00
40534;DHT22;26233;51.894;10.192;2023-08-21T06:56:59;24.80;52.90
40534;DHT22;26233;51.894;10.192;2023-08-21T06:59:26;25.30;53.50
40534;DHT22;26233;51.894;10.192;2023-08-21T07:01:53;25.90;53.90
40534;DHT22;26233;51.894;10.192;2023-08-21T07:04:20;26.50;53.80
40534;DHT22;26233;51.894;10.192;2023-08-21T07:06:47;27.10;53.70
40534;DHT22;26233;51.894;10.192;2023-08-21T07:09:16;27.80;53.20
40534;DHT22;26233;51.894;10.192;2023-08-21T07:11:43;28.50;52.60
40534;DHT22;26233;51.894;10.192;2023-08-21T07:14:10;29.10;52.00
40534;DHT22;26233;51.894;10.192;2023-08-21T07:16:39;29.70;51.30
40534;DHT22;26233;51.894;10.192;2023-08-21T07:19:06;30.30;50.60
40534;DHT22;26233;51.894;10.192;2023-08-21T07:21:33;30.80;50.10
40534;DHT22;26233;51.894;10.192;2023-08-21T07:24:02;31.20;49.50
40534;DHT22;26233;51.894;10.192;2023-08-21T07:26:31;31.70;48.80
40534;DHT22;26233;51.894;10.192;2023-08-21T07:28:58;32.00;48.40
40534;DHT22;26233;51.894;10.192;2023-08-21T07:31:25;32.20;46.50
40534;DHT22;26233;51.894;10.192;2023-08-21T07:33:53;32.40;45.80
40534;DHT22;26233;51.894;10.192;2023-08-21T07:36:20;32.40;44.70
40534;DHT22;26233;51.894;10.192;2023-08-21T07:38:47;32.40;44.00
40534;DHT22;26233;51.894;10.192;2023-08-21T07:41:14;32.30;43.50
40534;DHT22;26233;51.894;10.192;2023-08-21T07:43:44;32.20;43.10
40534;DHT22;26233;51.894;10.192;2023-08-21T07:46:12;32.20;43.00
40534;DHT22;26233;51.894;10.192;2023-08-21T07:48:41;32.20;43.00
40534;DHT22;26233;51.894;10.192;2023-08-21T07:51:09;32.10;43.00
40534;DHT22;26233;51.894;10.192;2023-08-21T07:53:36;31.90;42.40
40534;DHT22;26233;51.894;10.192;2023-08-21T07:56:04;31.70;41.90
40534;DHT22;26233;51.894;10.192;2023-08-21T07:58:32;31.40;41.70
40534;DHT22;26233;51.894;10.192;2023-08-21T08:01:00;31.00;41.60
40534;DHT22;26233;51.894;10.192;2023-08-21T08:03:30;30.70;41.70
40534;DHT22;26233;51.894;10.192;2023-08-21T08:05:57;30.50;42.60
40534;DHT22;26233;51.894;10.192;2023-08-21T08:08:25;30.20;42.60
40534;DHT22;26233;51.894;10.192;2023-08-21T08:10:52;30.20;43.00
40534;DHT22;26233;51.894;10.192;2023-08-21T08:13:19;30.20;43.70
40534;DHT22;26233;51.894;10.192;2023-08-21T08:15:46;30.40;44.20
40534;DHT22;26233;51.894;10.192;2023-08-21T08:18:15;30.60;43.80
40534;DHT22;26233;51.894;10.192;2023-08-21T08:20:42;30.90;43.80
40534;DHT22;26233;51.894;10.192;2023-08-21T08:23:10;31.20;43.30
40534;DHT22;26233;51.894;10.192;2023-08-21T08:25:37;31.50;42.80
40534;DHT22;26233;51.894;10.192;2023-08-21T08:28:04;31.90;42.80
40534;DHT22;26233;51.894;10.192;2023-08-21T08:30:33;32.20;42.90
40534;DHT22;26233;51.894;10.192;2023-08-21T08:33:00;32.50;42.30
40534;DHT22;26233;51.894;10.192;2023-08-21T08:35:29;33.00;42.60
40534;DHT22;26233;51.894;10.192;2023-08-21T08:37:56;33.20;41.70
40534;DHT22;26233;51.894;10.192;2023-08-21T08:40:23;33.50;41.60
40534;DHT22;26233;51.894;10.192;2023-08-21T08:42:50;33.90;41.30
40534;DHT22;26233;51.894;10.192;2023-08-21T08:45:28;34.10;40.80
40534;DHT22;26233;51.894;10.192;2023-08-21T08:47:59;34.30;39.80
40534;DHT22;26233;51.894;10.192;2023-08-21T08:50:30;34.50;39.90
40534;DHT22;26233;51.894;10.192;2023-08-21T08:52:59;34.70;39.40
40534;DHT22;26233;51.894;10.192;2023-08-21T08:55:26;34.90;39.70
40534;DHT22;26233;51.894;10.192;2023-08-21T08:57:54;35.00;38.80
40534;DHT22;26233;51.894;10.192;2023-08-21T09:00:21;35.10;38.60
40534;DHT22;26233;51.894;10.192;2023-08-21T09:02:48;35.10;38.30
40534;DHT22;26233;51.894;10.192;2023-08-21T09:05:15;35.00;37.60
40534;DHT22;26233;51.894;10.192;2023-08-21T09:07:44;34.90;37.60
40534;DHT22;26233;51.894;10.192;2023-08-21T09:10:15;34.80;37.60
40534;DHT22;26233;51.894;10.192;2023-08-21T09:12:45;34.60;37.00
40534;DHT22;26233;51.894;10.192;2023-08-21T09:15:13;34.30;37.30
40534;DHT22;26233;51.894;10.192;2023-08-21T09:17:40;34.10;37.40
40534;DHT22;26233;51.894;10.192;2023-08-21T09:20:08;34.00;37.50
40534;DHT22;26233;51.894;10.192;2023-08-21T09:22:36;33.80;36.80
40534;DHT22;26233;51.894;10.192;2023-08-21T09:25:06;33.50;36.60
40534;DHT22;26233;51.894;10.192;2023-08-21T09:27:38;33.20;36.40
40534;DHT22;26233;51.894;10.192;2023-08-21T09:30:09;32.80;36.30
40534;DHT22;26233;51.894;10.192;2023-08-21T09:32:52;32.50;36.30
40534;DHT22;26233;51.894;10.192;2023-08-21T09:35:21;32.10;36.50
40534;DHT22;26233;51.894;10.192;2023-08-21T09:37:49;31.70;36.60
40534;DHT22;26233;51.894;10.192;2023-08-21T09:40:20;31.40;36.70
40534;DHT22;26233;51.894;10.192;2023-08-21T09:42:51;31.20;37.50
40534;DHT22;26233;51.894;10.192;2023-08-21T09:45:21;31.00;37.50
40534;DHT22;26233;51.894;10.192;2023-08-21T09:47:49;30.90;37.80
40534;DHT22;26233;51.894;10.192;2023-08-21T09:50:16;30.80;37.90
40534;DHT22;26233;51.894;10.192;2023-08-21T09:52:45;30.70;37.80
40534;DHT22;26233;51.894;10.192;2023-08-21T09:55:13;30.60;38.10
40534;DHT22;26233;51.894;10.192;2023-08-21T09:57:42;30.60;38.70
40534;DHT22;26233;51.894;10.192;2023-08-21T10:00:10;30.70;38.80
40534;DHT22;26233;51.894;10.192;2023-08-21T10:02:42;30.90;39.40
40534;DHT22;26233;51.894;10.192;2023-08-21T10:05:15;31.20;39.70
40534;DHT22;26233;51.894;10.192;2023-08-21T10:07:44;31.60;40.00
40534;DHT22;26233;51.894;10.192;2023-08-21T10:10:14;32.00;40.10
40534;DHT22;26233;51.894;10.192;2023-08-21T10:12:44;32.50;40.10
40534;DHT22;26233;51.894;10.192;2023-08-21T10:15:11;33.00;39.70
40534;DHT22;26233;51.894;10.192;2023-08-21T10:17:38;33.30;39.40
40534;DHT22;26233;51.894;10.192;2023-08-21T10:20:09;33.60;38.30
40534;DHT22;26233;51.894;10.192;2023-08-21T10:22:43;33.70;37.40
40534;DHT22;26233;51.894;10.192;2023-08-21T10:25:15;33.70;36.90
40534;DHT22;26233;51.894;10.192;2023-08-21T10:27:45;33.70;36.70
40534;DHT22;26233;51.894;10.192;2023-08-21T10:30:20;33.60;36.60
40534;DHT22;26233;51.894;10.192;2023-08-21T10:32:49;33.50;36.70
40534;DHT22;26233;51.894;10.192;2023-08-21T10:35:19;33.40;36.60
40534;DHT22;26233;51.894;10.192;2023-08-21T10:38:07;33.30;36.40
40534;DHT22;26233;51.894;10.192;2023-08-21T10:40:36;33.10;36.20
40534;DHT22;26233;51.894;10.192;2023-08-21T10:46:09;32.70;35.90
40534;DHT22;26233;51.894;10.192;2023-08-21T10:48:37;32.50;36.30
40534;DHT22;26233;51.894;10.192;2023-08-21T10:51:06;32.40;36.40
40534;DHT22;26233;51.894;10.192;2023-08-21T10:53:34;32.30;36.80
40534;DHT22;26233;51.894;10.192;2023-08-21T10:56:04;32.20;36.70
40534;DHT22;26233;51.894;10.192;2023-08-21T10:58:38;32.10;36.50
40534;DHT22;26233;51.894;10.192;2023-08-21T11:01:06;31.90;36.10
40534;DHT22;26233;51.894;10.192;2023-08-21T11:03:33;31.80;36.50
40534;DHT22;26233;51.894;10.192;2023-08-21T11:06:01;31.80;36.90
40534;DHT22;26233;51.894;10.192;2023-08-21T11:08:30;31.80;37.00
40534;DHT22;26233;51.894;10.192;2023-08-21T11:10:58;31.80;36.70
40534;DHT22;26233;51.894;10.192;2023-08-21T11:13:25;31.70;36.80
40534;DHT22;26233;51.894;10.192;2023-08-21T11:16:01;31.70;36.60
40534;DHT22;26233;51.894;10.192;2023-08-21T11:18:30;31.50;36.20
40534;DHT22;26233;51.894;10.192;2023-08-21T11:21:05;31.30;36.30
40534;DHT22;26233;51.894;10.192;2023-08-21T11:23:34;31.20;36.40
40534;DHT22;26233;51.894;10.192;2023-08-21T11:26:03;31.00;36.50
40534;DHT22;26233;51.894;10.192;2023-08-21T11:28:31;30.90;36.60
40534;DHT22;26233;51.894;10.192;2023-08-21T11:31:00;30.90;37.40
40534;DHT22;26233;51.894;10.192;2023-08-21T11:33:27;31.00;37.80
40534;DHT22;26233;51.894;10.192;2023-08-21T11:35:55;31.10;37.90
40534;DHT22;26233;51.894;10.192;2023-08-21T11:38:25;31.20;38.10
40534;DHT22;26233;51.894;10.192;2023-08-21T11:40:54;31.40;37.60
40534;DHT22;26233;51.894;10.192;2023-08-21T11:43:23;31.50;37.60
40534;DHT22;26233;51.894;10.192;2023-08-21T11:46:02;31.70;38.10
40534;DHT22;26233;51.894;10.192;2023-08-21T11:48:30;31.90;37.90
40534;DHT22;26233;51.894;10.192;2023-08-21T11:50:57;32.20;38.20
40534;DHT22;26233;51.894;10.192;2023-08-21T11:53:35;32.30;37.90
40534;DHT22;26233;51.894;10.192;2023-08-21T11:56:09;32.50;37.20
40534;DHT22;26233;51.894;10.192;2023-08-21T11:58:38;32.80;37.90
40534;DHT22;26233;51.894;10.192;2023-08-21T12:01:07;33.10;37.80
40534;DHT22;26233;51.894;10.192;2023-08-21T12:03:39;33.30;37.50
40534;DHT22;26233;51.894;10.192;2023-08-21T12:06:07;33.40;37.20
40534;DHT22;26233;51.894;10.192;2023-08-21T12:08:35;33.60;37.10
40534;DHT22;26233;51.894;10.192;2023-08-21T12:11:03;33.80;36.90
40534;DHT22;26233;51.894;10.192;2023-08-21T12:13:30;33.90;36.40
40534;DHT22;26233;51.894;10.192;2023-08-21T12:15:57;33.90;36.00
40534;DHT22;26233;51.894;10.192;2023-08-21T12:18:26;33.90;36.00
40534;DHT22;26233;51.894;10.192;2023-08-21T12:20:53;33.90;35.90
40534;DHT22;26233;51.894;10.192;2023-08-21T12:23:20;33.90;35.50
40534;DHT22;26233;51.894;10.192;2023-08-21T12:25:47;33.90;35.60
40534;DHT22;26233;51.894;10.192;2023-08-21T12:28:15;33.90;36.10
40534;DHT22;26233;51.894;10.192;2023-08-21T12:30:42;33.90;36.20
40534;DHT22;26233;51.894;10.192;2023-08-21T12:33:09;34.00;36.00
40534;DHT22;26233;51.894;10.192;2023-08-21T12:35:38;34.10;36.10
40534;DHT22;26233;51.894;10.192;2023-08-21T12:38:11;34.20;36.20
40534;DHT22;26233;51.894;10.192;2023-08-21T12:40:38;34.30;35.70
40534;DHT22;26233;51.894;10.192;2023-08-21T12:43:05;34.40;35.90
40534;DHT22;26233;51.894;10.192;2023-08-21T12:45:34;34.40;35.40
40534;DHT22;26233;51.894;10.192;2023-08-21T12:48:02;34.40;35.60
40534;DHT22;26233;51.894;10.192;2023-08-21T12:50:30;34.50;35.30
40534;DHT22;26233;51.894;10.192;2023-08-21T12:52:59;34.40;35.00
40534;DHT22;26233;51.894;10.192;2023-08-21T12:55:26;34.40;34.80
40534;DHT22;26233;51.894;10.192;2023-08-21T12:57:55;34.30;34.90
40534;DHT22;26233;51.894;10.192;2023-08-21T13:00:22;34.20;34.70
40534;DHT22;26233;51.894;10.192;2023-08-21T13:02:49;34.10;34.80
40534;DHT22;26233;51.894;10.192;2023-08-21T13:05:17;34.00;34.50
40534;DHT22;26233;51.894;10.192;2023-08-21T13:07:44;33.90;34.70
40534;DHT22;26233;51.894;10.192;2023-08-21T13:10:13;33.90;34.80
40534;DHT22;26233;51.894;10.192;2023-08-21T13:12:40;33.80;34.90
40534;DHT22;26233;51.894;10.192;2023-08-21T13:15:07;33.80;34.80
40534;DHT22;26233;51.894;10.192;2023-08-21T13:17:35;33.70;34.80
40534;DHT22;26233;51.894;10.192;2023-08-21T13:20:03;33.70;35.10
40534;DHT22;26233;51.894;10.192;2023-08-21T13:22:44;33.70;35.00
40534;DHT22;26233;51.894;10.192;2023-08-21T13:25:14;33.70;35.00
40534;DHT22;26233;51.894;10.192;2023-08-21T13:27:41;33.70;35.20
40534;DHT22;26233;51.894;10.192;2023-08-21T13:30:11;33.80;35.20
40534;DHT22;26233;51.894;10.192;2023-08-21T13:32:39;33.90;35.60
40534;DHT22;26233;51.894;10.192;2023-08-21T13:35:06;34.00;35.60
40534;DHT22;26233;51.894;10.192;2023-08-21T13:37:35;34.00;35.20
40534;DHT22;26233;51.894;10.192;2023-08-21T13:40:04;34.10;35.10
40534;DHT22;26233;51.894;10.192;2023-08-21T13:42:38;34.20;35.20
40534;DHT22;26233;51.894;10.192;2023-08-21T13:45:08;34.20;34.60
40534;DHT22;26233;51.894;10.192;2023-08-21T13:47:37;34.10;34.20
40534;DHT22;26233;51.894;10.192;2023-08-21T13:50:06;34.00;34.20
40534;DHT22;26233;51.894;10.192;2023-08-21T13:52:34;33.90;34.30
40534;DHT22;26233;51.894;10.192;2023-08-21T13:55:02;33.70;34.30
40534;DHT22;26233;51.894;10.192;2023-08-21T13:57:30;33.60;34.40
40534;DHT22;26233;51.894;10.192;2023-08-21T14:00:00;33.40;34.50
40534;DHT22;26233;51.894;10.192;2023-08-21T14:02:27;33.30;34.70
40534;DHT22;26233;51.894;10.192;2023-08-21T14:04:54;33.30;34.70
40534;DHT22;26233;51.894;10.192;2023-08-21T14:07:21;33.20;34.50
40534;DHT22;26233;51.894;10.192;2023-08-21T14:09:48;33.10;34.80
40534;DHT22;26233;51.894;10.192;2023-08-21T14:12:15;33.10;34.90
40534;DHT22;26233;51.894;10.192;2023-08-21T14:14:42;33.10;34.80
40534;DHT22;26233;51.894;10.192;2023-08-21T14:17:11;33.10;34.90
40534;DHT22;26233;51.894;10.192;2023-08-21T14:19:38;33.00;34.60
40534;DHT22;26233;51.894;10.192;2023-08-21T14:22:05;33.00;35.00
40534;DHT22;26233;51.894;10.192;2023-08-21T14:24:32;32.90;35.10
40534;DHT22;26233;51.894;10.192;2023-08-21T14:26:59;32.90;34.80
40534;DHT22;26233;51.894;10.192;2023-08-21T14:29:27;32.80;34.40
40534;DHT22;26233;51.894;10.192;2023-08-21T14:31:54;32.70;34.50
40534;DHT22;26233;51.894;10.192;2023-08-21T14:34:24;32.60;34.70
40534;DHT22;26233;51.894;10.192;2023-08-21T14:36:51;32.50;34.70
40534;DHT22;26233;51.894;10.192;2023-08-21T14:39:19;32.40;35.00
40534;DHT22;26233;51.894;10.192;2023-08-21T14:41:52;32.30;34.90
40534;DHT22;26233;51.894;10.192;2023-08-21T14:44:20;32.20;34.80
40534;DHT22;26233;51.894;10.192;2023-08-21T14:46:47;32.10;35.00
40534;DHT22;26233;51.894;10.192;2023-08-21T14:49:14;32.10;35.10
40534;DHT22;26233;51.894;10.192;2023-08-21T14:51:43;32.00;35.30
40534;DHT22;26233;51.894;10.192;2023-08-21T14:54:10;32.00;35.50
40534;DHT22;26233;51.894;10.192;2023-08-21T14:56:37;32.00;35.50
40534;DHT22;26233;51.894;10.192;2023-08-21T14:59:04;32.00;35.50
40534;DHT22;26233;51.894;10.192;2023-08-21T15:01:36;32.00;35.40
40534;DHT22;26233;51.894;10.192;2023-08-21T15:04:04;32.00;35.40
40534;DHT22;26233;51.894;10.192;2023-08-21T15:06:31;31.90;35.10
40534;DHT22;26233;51.894;10.192;2023-08-21T15:09:00;31.90;34.90
40534;DHT22;26233;51.894;10.192;2023-08-21T15:11:27;31.70;34.80
40534;DHT22;26233;51.894;10.192;2023-08-21T15:13:54;31.60;34.90
40534;DHT22;26233;51.894;10.192;2023-08-21T15:16:21;31.40;34.90
40534;DHT22;26233;51.894;10.192;2023-08-21T15:18:49;31.30;34.90
40534;DHT22;26233;51.894;10.192;2023-08-21T15:21:18;31.10;35.00
40534;DHT22;26233;51.894;10.192;2023-08-21T15:23:45;30.90;35.20